sensor_id;sensor_type;location;lat;lon;timestamp;P1;durP1;ratioP1;P2;durP2;ratioP2
21657;SDS011;10990;48.174;9.782;2023-07-13T00:01:26;8.90;;;6.43;;
21657;SDS011;10990;48.174;9.782;2023-07-13T00:03:54;10.65;;;7.32;;
21657;SDS011;10990;48.174;9.782;2023-07-13T00:06:21;10.65;;;7.15;;
21657;SDS011;10990;48.174;9.782;2023-07-13T00:08:47;11.23;;;7.07;;
21657;SDS011;10990;48.174;9.782;2023-07-13T00:11:15;10.15;;;6.38;;
21657;SDS011;10990;48.174;9.782;2023-07-13T00:13:42;9.95;;;6.78;;
21657;SDS011;10990;48.174;9.782;2023-07-13T00:16:10;9.90;;;5.85;;
21657;SDS011;10990;48.174;9.782;2023-07-13T00:18:39;9.20;;;6.18;;
21657;SDS011;10990;48.174;9.782;2023-07-13T00:21:07;8.63;;;5.80;;
21657;SDS011;10990;48.174;9.782;2023-07-13T00:23:35;9.95;;;6.10;;
21657;SDS011;10990;48.174;9.782;2023-07-13T00:26:02;10.35;;;6.75;;
21657;SDS011;10990;48.174;9.782;2023-07-13T00:28:30;10.15;;;6.75;;
21657;SDS011;10990;48.174;9.782;2023-07-13T00:30:57;11.75;;;5.75;;
21657;SDS011;10990;48.174;9.782;2023-07-13T00:33:24;10.43;;;5.32;;
21657;SDS011;10990;48.174;9.782;2023-07-13T00:35:50;6.53;;;4.72;;
21657;SDS011;10990;48.174;9.782;2023-07-13T00:38:18;5.97;;;4.20;;
21657;SDS011;10990;48.174;9.782;2023-07-13T00:40:46;7.53;;;3.88;;
21657;SDS011;10990;48.174;9.782;2023-07-13T00:43:13;6.93;;;4.03;;
21657;SDS011;10990;48.174;9.782;2023-07-13T00:48:37;8.05;;;4.20;;
21657;SDS011;10990;48.174;9.782;2023-07-13T00:51:05;4.55;;;3.50;;
21657;SDS011;10990;48.174;9.782;2023-07-13T00:53:33;5.00;;;3.30;;
21657;SDS011;10990;48.174;9.782;2023-07-13T00:56:01;5.13;;;3.42;;
21657;SDS011;10990;48.174;9.782;2023-07-13T00:58:29;5.75;;;3.03;;
21657;SDS011;10990;48.174;9.782;2023-07-13T01:00:56;5.35;;;3.00;;
21657;SDS011;10990;48.174;9.782;2023-07-13T01:03:23;6.05;;;2.90;;
21657;SDS011;10990;48.174;9.782;2023-07-13T01:05:50;5.03;;;2.88;;
21657;SDS011;10990;48.174;9.782;2023-07-13T01:08:19;4.50;;;2.40;;
21657;SDS011;10990;48.174;9.782;2023-07-13T01:10:54;4.03;;;2.72;;
21657;SDS011;10990;48.174;9.782;2023-07-13T01:13:23;5.03;;;2.60;;
21657;SDS011;10990;48.174;9.782;2023-07-13T01:15:50;3.03;;;2.17;;
21657;SDS011;10990;48.174;9.782;2023-07-13T01:18:19;3.55;;;2.33;;
21657;SDS011;10990;48.174;9.782;2023-07-13T01:20:51;4.28;;;2.40;;
21657;SDS011;10990;48.174;9.782;2023-07-13T01:23:19;3.08;;;2.20;;
21657;SDS011;10990;48.174;9.782;2023-07-13T01:25:47;3.22;;;2.10;;
21657;SDS011;10990;48.174;9.782;2023-07-13T01:28:14;5.50;;;2.40;;
21657;SDS011;10990;48.174;9.782;2023-07-13T01:30:42;4.65;;;2.30;;
21657;SDS011;10990;48.174;9.782;2023-07-13T01:33:11;3.78;;;2.30;;
21657;SDS011;10990;48.174;9.782;2023-07-13T01:35:39;3.03;;;2.22;;
21657;SDS011;10990;48.174;9.782;2023-07-13T01:38:08;2.88;;;2.15;;
21657;SDS011;10990;48.174;9.782;2023-07-13T01:40:36;4.22;;;2.35;;
21657;SDS011;10990;48.174;9.782;2023-07-13T01:43:04;5.30;;;2.30;;
21657;SDS011;10990;48.174;9.782;2023-07-13T01:45:31;5.55;;;2.40;;
21657;SDS011;10990;48.174;9.782;2023-07-13T01:47:58;3.72;;;2.47;;
21657;SDS011;10990;48.174;9.782;2023-07-13T01:50:25;5.85;;;2.30;;
21657;SDS011;10990;48.174;9.782;2023-07-13T01:52:52;3.40;;;2.20;;
21657;SDS011;10990;48.174;9.782;2023-07-13T01:55:20;2.67;;;2.22;;
21657;SDS011;10990;48.174;9.782;2023-07-13T01:57:47;3.78;;;2.60;;
21657;SDS011;10990;48.174;9.782;2023-07-13T02:00:14;2.80;;;2.10;;
21657;SDS011;10990;48.174;9.782;2023-07-13T02:02:41;3.92;;;2.20;;
21657;SDS011;10990;48.174;9.782;2023-07-13T02:05:09;5.30;;;2.25;;
21657;SDS011;10990;48.174;9.782;2023-07-13T02:07:37;4.20;;;2.30;;
21657;SDS011;10990;48.174;9.782;2023-07-13T02:10:04;4.65;;;2.65;;
21657;SDS011;10990;48.174;9.782;2023-07-13T02:12:33;5.30;;;2.80;;
21657;SDS011;10990;48.174;9.782;2023-07-13T02:15:00;5.60;;;2.65;;
21657;SDS011;10990;48.174;9.782;2023-07-13T02:17:27;4.93;;;2.60;;
21657;SDS011;10990;48.174;9.782;2023-07-13T02:19:54;4.97;;;2.50;;
21657;SDS011;10990;48.174;9.782;2023-07-13T02:22:21;6.90;;;2.35;;
21657;SDS011;10990;48.174;9.782;2023-07-13T02:24:48;3.53;;;2.40;;
21657;SDS011;10990;48.174;9.782;2023-07-13T02:27:17;7.05;;;2.25;;
21657;SDS011;10990;48.174;9.782;2023-07-13T02:29:45;6.55;;;2.25;;
21657;SDS011;10990;48.174;9.782;2023-07-13T02:32:12;3.55;;;2.28;;
21657;SDS011;10990;48.174;9.782;2023-07-13T02:34:40;2.92;;;1.80;;
21657;SDS011;10990;48.174;9.782;2023-07-13T02:37:07;4.18;;;2.17;;
21657;SDS011;10990;48.174;9.782;2023-07-13T02:39:34;5.50;;;2.05;;
21657;SDS011;10990;48.174;9.782;2023-07-13T02:42:02;3.78;;;2.08;;
21657;SDS011;10990;48.174;9.782;2023-07-13T02:44:29;3.42;;;2.28;;
21657;SDS011;10990;48.174;9.782;2023-07-13T02:46:57;3.83;;;2.00;;
21657;SDS011;10990;48.174;9.782;2023-07-13T02:49:24;2.88;;;1.88;;
21657;SDS011;10990;48.174;9.782;2023-07-13T02:51:51;3.38;;;1.77;;
21657;SDS011;10990;48.174;9.782;2023-07-13T02:54:18;3.08;;;2.00;;
21657;SDS011;10990;48.174;9.782;2023-07-13T02:56:45;3.47;;;1.90;;
21657;SDS011;10990;48.174;9.782;2023-07-13T02:59:12;4.45;;;1.80;;
21657;SDS011;10990;48.174;9.782;2023-07-13T03:01:39;3.28;;;1.83;;
21657;SDS011;10990;48.174;9.782;2023-07-13T03:04:07;3.95;;;2.00;;
21657;SDS011;10990;48.174;9.782;2023-07-13T03:06:34;7.35;;;2.00;;
21657;SDS011;10990;48.174;9.782;2023-07-13T03:09:02;5.68;;;1.95;;
21657;SDS011;10990;48.174;9.782;2023-07-13T03:11:31;3.80;;;1.67;;
21657;SDS011;10990;48.174;9.782;2023-07-13T03:14:06;4.07;;;2.05;;
21657;SDS011;10990;48.174;9.782;2023-07-13T03:16:36;3.75;;;1.80;;
21657;SDS011;10990;48.174;9.782;2023-07-13T03:19:03;4.13;;;1.90;;
21657;SDS011;10990;48.174;9.782;2023-07-13T03:21:31;3.58;;;2.08;;
21657;SDS011;10990;48.174;9.782;2023-07-13T03:23:58;3.17;;;1.95;;
21657;SDS011;10990;48.174;9.782;2023-07-13T03:26:24;4.25;;;2.05;;
21657;SDS011;10990;48.174;9.782;2023-07-13T03:28:51;6.05;;;2.15;;
21657;SDS011;10990;48.174;9.782;2023-07-13T03:31:23;4.10;;;2.10;;
21657;SDS011;10990;48.174;9.782;2023-07-13T03:33:51;3.38;;;1.90;;
21657;SDS011;10990;48.174;9.782;2023-07-13T03:36:18;3.47;;;1.92;;
21657;SDS011;10990;48.174;9.782;2023-07-13T03:38:49;2.92;;;2.10;;
21657;SDS011;10990;48.174;9.782;2023-07-13T03:41:21;4.22;;;1.77;;
21657;SDS011;10990;48.174;9.782;2023-07-13T03:43:51;3.30;;;1.85;;
21657;SDS011;10990;48.174;9.782;2023-07-13T03:46:20;2.85;;;1.70;;
21657;SDS011;10990;48.174;9.782;2023-07-13T03:48:47;3.08;;;1.90;;
21657;SDS011;10990;48.174;9.782;2023-07-13T03:51:15;3.38;;;1.77;;
21657;SDS011;10990;48.174;9.782;2023-07-13T03:53:43;2.10;;;1.80;;
21657;SDS011;10990;48.174;9.782;2023-07-13T03:56:15;3.63;;;1.63;;
21657;SDS011;10990;48.174;9.782;2023-07-13T03:58:44;3.75;;;1.75;;
21657;SDS011;10990;48.174;9.782;2023-07-13T04:01:19;4.18;;;1.60;;
21657;SDS011;10990;48.174;9.782;2023-07-13T04:03:48;3.45;;;1.65;;
21657;SDS011;10990;48.174;9.782;2023-07-13T04:06:15;3.50;;;1.50;;
21657;SDS011;10990;48.174;9.782;2023-07-13T04:08:46;3.92;;;1.70;;
21657;SDS011;10990;48.174;9.782;2023-07-13T04:11:16;4.28;;;1.88;;
21657;SDS011;10990;48.174;9.782;2023-07-13T04:13:44;2.83;;;1.70;;
21657;SDS011;10990;48.174;9.782;2023-07-13T04:16:11;3.35;;;1.77;;
21657;SDS011;10990;48.174;9.782;2023-07-13T04:18:38;4.50;;;1.85;;
21657;SDS011;10990;48.174;9.782;2023-07-13T04:21:05;1.80;;;1.60;;
21657;SDS011;10990;48.174;9.782;2023-07-13T04:23:31;4.15;;;1.50;;
21657;SDS011;10990;48.174;9.782;2023-07-13T04:25:58;3.25;;;1.60;;
21657;SDS011;10990;48.174;9.782;2023-07-13T04:28:26;1.98;;;1.70;;
21657;SDS011;10990;48.174;9.782;2023-07-13T04:30:54;2.50;;;1.60;;
21657;SDS011;10990;48.174;9.782;2023-07-13T04:33:21;2.58;;;1.67;;
21657;SDS011;10990;48.174;9.782;2023-07-13T04:35:48;3.10;;;1.70;;
21657;SDS011;10990;48.174;9.782;2023-07-13T04:38:21;2.60;;;1.70;;
21657;SDS011;10990;48.174;9.782;2023-07-13T04:40:49;4.35;;;1.60;;
21657;SDS011;10990;48.174;9.782;2023-07-13T04:43:16;4.90;;;1.80;;
21657;SDS011;10990;48.174;9.782;2023-07-13T04:45:45;3.63;;;1.40;;
21657;SDS011;10990;48.174;9.782;2023-07-13T04:48:11;2.85;;;1.58;;
21657;SDS011;10990;48.174;9.782;2023-07-13T04:50:38;3.58;;;1.52;;
21657;SDS011;10990;48.174;9.782;2023-07-13T04:53:05;4.25;;;1.58;;
21657;SDS011;10990;48.174;9.782;2023-07-13T04:55:32;3.67;;;1.88;;
21657;SDS011;10990;48.174;9.782;2023-07-13T04:57:59;4.57;;;1.70;;
21657;SDS011;10990;48.174;9.782;2023-07-13T05:00:26;4.57;;;1.92;;
21657;SDS011;10990;48.174;9.782;2023-07-13T05:02:55;4.00;;;1.92;;
21657;SDS011;10990;48.174;9.782;2023-07-13T05:05:23;3.20;;;1.70;;
21657;SDS011;10990;48.174;9.782;2023-07-13T05:07:51;3.28;;;1.40;;
21657;SDS011;10990;48.174;9.782;2023-07-13T05:10:18;2.95;;;1.60;;
21657;SDS011;10990;48.174;9.782;2023-07-13T05:12:45;2.33;;;1.60;;
21657;SDS011;10990;48.174;9.782;2023-07-13T05:15:12;1.85;;;1.60;;
21657;SDS011;10990;48.174;9.782;2023-07-13T05:17:38;1.80;;;1.45;;
21657;SDS011;10990;48.174;9.782;2023-07-13T05:20:07;2.40;;;1.63;;
21657;SDS011;10990;48.174;9.782;2023-07-13T05:22:35;3.17;;;1.63;;
21657;SDS011;10990;48.174;9.782;2023-07-13T05:25:01;4.50;;;1.95;;
21657;SDS011;10990;48.174;9.782;2023-07-13T05:27:30;2.72;;;1.55;;
21657;SDS011;10990;48.174;9.782;2023-07-13T05:29:57;3.03;;;1.50;;
21657;SDS011;10990;48.174;9.782;2023-07-13T05:32:24;2.67;;;1.80;;
21657;SDS011;10990;48.174;9.782;2023-07-13T05:34:51;3.90;;;1.60;;
21657;SDS011;10990;48.174;9.782;2023-07-13T05:37:19;2.45;;;1.83;;
21657;SDS011;10990;48.174;9.782;2023-07-13T05:39:46;2.97;;;1.73;;
21657;SDS011;10990;48.174;9.782;2023-07-13T05:42:12;3.22;;;1.67;;
21657;SDS011;10990;48.174;9.782;2023-07-13T05:44:39;4.82;;;1.67;;
21657;SDS011;10990;48.174;9.782;2023-07-13T05:47:06;2.40;;;1.70;;
21657;SDS011;10990;48.174;9.782;2023-07-13T05:49:33;3.78;;;1.75;;
21657;SDS011;10990;48.174;9.782;2023-07-13T05:52:00;2.35;;;1.50;;
21657;SDS011;10990;48.174;9.782;2023-07-13T05:54:28;2.25;;;1.55;;
21657;SDS011;10990;48.174;9.782;2023-07-13T05:56:55;1.90;;;1.50;;
21657;SDS011;10990;48.174;9.782;2023-07-13T05:59:21;2.97;;;1.40;;
21657;SDS011;10990;48.174;9.782;2023-07-13T06:01:48;4.35;;;1.60;;
21657;SDS011;10990;48.174;9.782;2023-07-13T06:04:17;2.50;;;1.60;;
21657;SDS011;10990;48.174;9.782;2023-07-13T06:06:44;6.28;;;1.60;;
21657;SDS011;10990;48.174;9.782;2023-07-13T06:09:10;2.50;;;1.50;;
21657;SDS011;10990;48.174;9.782;2023-07-13T06:11:38;4.13;;;1.50;;
21657;SDS011;10990;48.174;9.782;2023-07-13T06:14:05;2.00;;;1.60;;
21657;SDS011;10990;48.174;9.782;2023-07-13T06:16:32;2.80;;;1.60;;
21657;SDS011;10990;48.174;9.782;2023-07-13T06:18:58;2.80;;;1.60;;
21657;SDS011;10990;48.174;9.782;2023-07-13T06:21:25;2.03;;;1.40;;
21657;SDS011;10990;48.174;9.782;2023-07-13T06:23:52;1.75;;;1.25;;
21657;SDS011;10990;48.174;9.782;2023-07-13T06:26:20;4.47;;;1.58;;
21657;SDS011;10990;48.174;9.782;2023-07-13T06:28:48;2.33;;;1.40;;
21657;SDS011;10990;48.174;9.782;2023-07-13T06:31:15;2.90;;;1.42;;
21657;SDS011;10990;48.174;9.782;2023-07-13T06:33:42;3.58;;;1.40;;
21657;SDS011;10990;48.174;9.782;2023-07-13T06:36:09;3.80;;;1.48;;
21657;SDS011;10990;48.174;9.782;2023-07-13T06:38:36;4.00;;;1.40;;
21657;SDS011;10990;48.174;9.782;2023-07-13T06:41:04;3.88;;;1.40;;
21657;SDS011;10990;48.174;9.782;2023-07-13T06:43:31;4.63;;;1.63;;
21657;SDS011;10990;48.174;9.782;2023-07-13T06:45:59;1.83;;;1.30;;
21657;SDS011;10990;48.174;9.782;2023-07-13T06:48:26;4.88;;;1.63;;
21657;SDS011;10990;48.174;9.782;2023-07-13T06:50:53;2.55;;;1.48;;
21657;SDS011;10990;48.174;9.782;2023-07-13T06:53:21;5.82;;;1.50;;
21657;SDS011;10990;48.174;9.782;2023-07-13T06:55:48;1.95;;;1.30;;
21657;SDS011;10990;48.174;9.782;2023-07-13T06:58:17;3.10;;;1.35;;
21657;SDS011;10990;48.174;9.782;2023-07-13T07:00:44;3.38;;;1.52;;
21657;SDS011;10990;48.174;9.782;2023-07-13T07:03:12;2.65;;;1.60;;
21657;SDS011;10990;48.174;9.782;2023-07-13T07:05:39;3.30;;;1.40;;
21657;SDS011;10990;48.174;9.782;2023-07-13T07:08:06;3.05;;;1.40;;
21657;SDS011;10990;48.174;9.782;2023-07-13T07:10:32;4.47;;;1.77;;
21657;SDS011;10990;48.174;9.782;2023-07-13T07:12:59;3.95;;;1.60;;
21657;SDS011;10990;48.174;9.782;2023-07-13T07:15:26;2.65;;;1.50;;
21657;SDS011;10990;48.174;9.782;2023-07-13T07:17:53;2.67;;;1.60;;
21657;SDS011;10990;48.174;9.782;2023-07-13T07:20:21;3.97;;;1.50;;
21657;SDS011;10990;48.174;9.782;2023-07-13T07:22:48;2.10;;;1.35;;
21657;SDS011;10990;48.174;9.782;2023-07-13T07:25:14;2.92;;;1.20;;
21657;SDS011;10990;48.174;9.782;2023-07-13T07:27:41;2.10;;;1.17;;
21657;SDS011;10990;48.174;9.782;2023-07-13T07:30:09;1.30;;;1.20;;
21657;SDS011;10990;48.174;9.782;2023-07-13T07:32:36;2.17;;;1.20;;
21657;SDS011;10990;48.174;9.782;2023-07-13T07:35:03;1.33;;;1.20;;
21657;SDS011;10990;48.174;9.782;2023-07-13T07:37:31;1.85;;;1.10;;
21657;SDS011;10990;48.174;9.782;2023-07-13T07:39:58;1.33;;;1.02;;
21657;SDS011;10990;48.174;9.782;2023-07-13T07:42:25;2.35;;;1.23;;
21657;SDS011;10990;48.174;9.782;2023-07-13T07:44:52;1.40;;;1.20;;
21657;SDS011;10990;48.174;9.782;2023-07-13T07:47:18;2.05;;;1.23;;
21657;SDS011;10990;48.174;9.782;2023-07-13T07:49:45;1.30;;;1.20;;
21657;SDS011;10990;48.174;9.782;2023-07-13T07:52:12;3.67;;;1.55;;
21657;SDS011;10990;48.174;9.782;2023-07-13T07:54:40;4.20;;;1.48;;
21657;SDS011;10990;48.174;9.782;2023-07-13T07:57:07;3.58;;;1.35;;
21657;SDS011;10990;48.174;9.782;2023-07-13T07:59:35;3.97;;;1.30;;
21657;SDS011;10990;48.174;9.782;2023-07-13T08:02:03;2.78;;;1.42;;
21657;SDS011;10990;48.174;9.782;2023-07-13T08:04:30;3.83;;;1.45;;
21657;SDS011;10990;48.174;9.782;2023-07-13T08:06:56;4.63;;;1.55;;
21657;SDS011;10990;48.174;9.782;2023-07-13T08:09:23;2.28;;;1.10;;
21657;SDS011;10990;48.174;9.782;2023-07-13T08:11:51;2.60;;;1.40;;
21657;SDS011;10990;48.174;9.782;2023-07-13T08:14:19;3.40;;;1.20;;
21657;SDS011;10990;48.174;9.782;2023-07-13T08:16:46;1.40;;;1.10;;
21657;SDS011;10990;48.174;9.782;2023-07-13T08:19:13;2.35;;;1.20;;
21657;SDS011;10990;48.174;9.782;2023-07-13T08:21:40;2.63;;;1.20;;
21657;SDS011;10990;48.174;9.782;2023-07-13T08:24:07;1.98;;;1.20;;
21657;SDS011;10990;48.174;9.782;2023-07-13T08:26:34;2.88;;;1.10;;
21657;SDS011;10990;48.174;9.782;2023-07-13T08:29:02;2.00;;;1.10;;
21657;SDS011;10990;48.174;9.782;2023-07-13T08:31:28;1.13;;;1.02;;
21657;SDS011;10990;48.174;9.782;2023-07-13T08:33:55;1.63;;;1.15;;
21657;SDS011;10990;48.174;9.782;2023-07-13T08:36:22;4.03;;;1.38;;
21657;SDS011;10990;48.174;9.782;2023-07-13T08:38:49;1.90;;;1.00;;
21657;SDS011;10990;48.174;9.782;2023-07-13T08:41:16;2.17;;;1.20;;
21657;SDS011;10990;48.174;9.782;2023-07-13T08:43:45;2.55;;;1.33;;
21657;SDS011;10990;48.174;9.782;2023-07-13T08:46:28;2.88;;;1.40;;
21657;SDS011;10990;48.174;9.782;2023-07-13T08:49:01;4.43;;;1.27;;
21657;SDS011;10990;48.174;9.782;2023-07-13T08:51:33;1.48;;;1.10;;
21657;SDS011;10990;48.174;9.782;2023-07-13T08:54:10;2.72;;;1.20;;
21657;SDS011;10990;48.174;9.782;2023-07-13T08:56:50;4.65;;;1.20;;
21657;SDS011;10990;48.174;9.782;2023-07-13T08:59:20;1.83;;;1.10;;
21657;SDS011;10990;48.174;9.782;2023-07-13T09:01:54;3.00;;;1.35;;
21657;SDS011;10990;48.174;9.782;2023-07-13T09:04:32;1.83;;;1.10;;
21657;SDS011;10990;48.174;9.782;2023-07-13T09:07:05;2.00;;;1.10;;
21657;SDS011;10990;48.174;9.782;2023-07-13T09:09:42;5.97;;;1.60;;
21657;SDS011;10990;48.174;9.782;2023-07-13T09:12:18;2.42;;;1.25;;
21657;SDS011;10990;48.174;9.782;2023-07-13T09:14:54;2.45;;;1.13;;
21657;SDS011;10990;48.174;9.782;2023-07-13T09:17:25;3.60;;;1.50;;
21657;SDS011;10990;48.174;9.782;2023-07-13T09:19:56;2.20;;;1.27;;
21657;SDS011;10990;48.174;9.782;2023-07-13T09:22:25;5.30;;;1.30;;
21657;SDS011;10990;48.174;9.782;2023-07-13T09:24:57;4.63;;;1.25;;
21657;SDS011;10990;48.174;9.782;2023-07-13T09:27:29;2.55;;;1.42;;
21657;SDS011;10990;48.174;9.782;2023-07-13T09:30:02;1.90;;;1.30;;
21657;SDS011;10990;48.174;9.782;2023-07-13T09:32:47;2.70;;;1.42;;
21657;SDS011;10990;48.174;9.782;2023-07-13T09:35:19;3.00;;;1.30;;
21657;SDS011;10990;48.174;9.782;2023-07-13T09:37:50;1.90;;;1.38;;
21657;SDS011;10990;48.174;9.782;2023-07-13T09:40:20;2.53;;;1.23;;
21657;SDS011;10990;48.174;9.782;2023-07-13T09:42:52;2.53;;;1.35;;
21657;SDS011;10990;48.174;9.782;2023-07-13T09:45:26;3.90;;;1.50;;
21657;SDS011;10990;48.174;9.782;2023-07-13T09:48:02;1.63;;;1.10;;
21657;SDS011;10990;48.174;9.782;2023-07-13T09:50:31;4.00;;;1.30;;
21657;SDS011;10990;48.174;9.782;2023-07-13T09:52:57;4.22;;;1.25;;
21657;SDS011;10990;48.174;9.782;2023-07-13T09:55:28;2.17;;;1.40;;
21657;SDS011;10990;48.174;9.782;2023-07-13T09:57:58;3.92;;;1.20;;
21657;SDS011;10990;48.174;9.782;2023-07-13T10:00:30;1.52;;;1.10;;
21657;SDS011;10990;48.174;9.782;2023-07-13T10:02:58;3.03;;;1.20;;
21657;SDS011;10990;48.174;9.782;2023-07-13T10:05:34;3.00;;;1.40;;
21657;SDS011;10990;48.174;9.782;2023-07-13T10:08:03;3.65;;;1.35;;
21657;SDS011;10990;48.174;9.782;2023-07-13T10:10:33;3.28;;;1.50;;
21657;SDS011;10990;48.174;9.782;2023-07-13T10:13:01;3.20;;;1.40;;
21657;SDS011;10990;48.174;9.782;2023-07-13T10:15:30;3.25;;;1.45;;
21657;SDS011;10990;48.174;9.782;2023-07-13T10:17:58;4.40;;;1.50;;
21657;SDS011;10990;48.174;9.782;2023-07-13T10:20:27;4.22;;;1.60;;
21657;SDS011;10990;48.174;9.782;2023-07-13T10:22:54;2.17;;;1.10;;
21657;SDS011;10990;48.174;9.782;2023-07-13T10:25:26;2.85;;;1.40;;
21657;SDS011;10990;48.174;9.782;2023-07-13T10:27:58;1.55;;;1.25;;
21657;SDS011;10990;48.174;9.782;2023-07-13T10:30:32;2.50;;;1.30;;
21657;SDS011;10990;48.174;9.782;2023-07-13T10:33:02;3.63;;;1.60;;
21657;SDS011;10990;48.174;9.782;2023-07-13T10:35:32;3.97;;;1.35;;
21657;SDS011;10990;48.174;9.782;2023-07-13T10:38:00;3.33;;;1.17;;
21657;SDS011;10990;48.174;9.782;2023-07-13T10:40:35;3.88;;;1.40;;
21657;SDS011;10990;48.174;9.782;2023-07-13T10:43:06;5.30;;;1.20;;
21657;SDS011;10990;48.174;9.782;2023-07-13T10:45:40;3.65;;;1.27;;
21657;SDS011;10990;48.174;9.782;2023-07-13T10:48:08;3.60;;;1.30;;
21657;SDS011;10990;48.174;9.782;2023-07-13T10:50:40;4.40;;;1.33;;
21657;SDS011;10990;48.174;9.782;2023-07-13T10:53:17;2.88;;;1.20;;
21657;SDS011;10990;48.174;9.782;2023-07-13T10:55:56;3.63;;;1.25;;
21657;SDS011;10990;48.174;9.782;2023-07-13T10:58:28;3.28;;;1.50;;
21657;SDS011;10990;48.174;9.782;2023-07-13T11:01:00;2.65;;;1.10;;
21657;SDS011;10990;48.174;9.782;2023-07-13T11:03:33;1.50;;;1.10;;
21657;SDS011;10990;48.174;9.782;2023-07-13T11:06:07;2.72;;;1.30;;
21657;SDS011;10990;48.174;9.782;2023-07-13T11:08:37;2.60;;;1.20;;
21657;SDS011;10990;48.174;9.782;2023-07-13T11:14:03;3.47;;;1.48;;
21657;SDS011;10990;48.174;9.782;2023-07-13T11:16:34;3.15;;;1.42;;
21657;SDS011;10990;48.174;9.782;2023-07-13T11:19:23;4.10;;;1.33;;
21657;SDS011;10990;48.174;9.782;2023-07-13T11:22:15;1.83;;;1.10;;
21657;SDS011;10990;48.174;9.782;2023-07-13T11:24:48;3.80;;;1.27;;
21657;SDS011;10990;48.174;9.782;2023-07-13T11:27:24;3.00;;;1.17;;
21657;SDS011;10990;48.174;9.782;2023-07-13T11:30:24;3.38;;;1.27;;
21657;SDS011;10990;48.174;9.782;2023-07-13T11:33:04;1.55;;;1.20;;
21657;SDS011;10990;48.174;9.782;2023-07-13T11:35:41;2.92;;;1.50;;
21657;SDS011;10990;48.174;9.782;2023-07-13T11:38:15;1.50;;;1.27;;
21657;SDS011;10990;48.174;9.782;2023-07-13T11:40:45;2.67;;;1.48;;
21657;SDS011;10990;48.174;9.782;2023-07-13T11:43:13;2.47;;;1.60;;
21657;SDS011;10990;48.174;9.782;2023-07-13T11:45:41;4.07;;;1.48;;
21657;SDS011;10990;48.174;9.782;2023-07-13T11:48:21;5.22;;;1.80;;
21657;SDS011;10990;48.174;9.782;2023-07-13T11:50:50;2.42;;;1.38;;
21657;SDS011;10990;48.174;9.782;2023-07-13T11:53:21;1.15;;;1.02;;
21657;SDS011;10990;48.174;9.782;2023-07-13T11:55:49;1.88;;;1.33;;
21657;SDS011;10990;48.174;9.782;2023-07-13T11:58:18;3.15;;;1.42;;
21657;SDS011;10990;48.174;9.782;2023-07-13T12:00:49;3.72;;;1.60;;
21657;SDS011;10990;48.174;9.782;2023-07-13T12:03:22;4.13;;;1.40;;
21657;SDS011;10990;48.174;9.782;2023-07-13T12:05:57;4.43;;;1.70;;
21657;SDS011;10990;48.174;9.782;2023-07-13T12:08:27;1.73;;;1.40;;
21657;SDS011;10990;48.174;9.782;2023-07-13T12:10:59;6.53;;;1.60;;
21657;SDS011;10990;48.174;9.782;2023-07-13T12:13:34;5.57;;;1.65;;
21657;SDS011;10990;48.174;9.782;2023-07-13T12:16:07;6.03;;;1.67;;
21657;SDS011;10990;48.174;9.782;2023-07-13T12:18:38;2.63;;;1.63;;
21657;SDS011;10990;48.174;9.782;2023-07-13T12:21:05;7.10;;;1.60;;
21657;SDS011;10990;48.174;9.782;2023-07-13T12:23:37;2.58;;;1.27;;
21657;SDS011;10990;48.174;9.782;2023-07-13T12:26:06;2.33;;;1.60;;
21657;SDS011;10990;48.174;9.782;2023-07-13T12:28:35;3.38;;;1.60;;
21657;SDS011;10990;48.174;9.782;2023-07-13T12:31:05;3.03;;;1.60;;
21657;SDS011;10990;48.174;9.782;2023-07-13T12:33:48;3.65;;;1.45;;
21657;SDS011;10990;48.174;9.782;2023-07-13T12:36:23;2.53;;;1.55;;
21657;SDS011;10990;48.174;9.782;2023-07-13T12:38:51;3.95;;;1.70;;
21657;SDS011;10990;48.174;9.782;2023-07-13T12:41:19;3.28;;;1.70;;
21657;SDS011;10990;48.174;9.782;2023-07-13T12:43:45;4.57;;;1.60;;
21657;SDS011;10990;48.174;9.782;2023-07-13T12:46:17;3.40;;;1.60;;
21657;SDS011;10990;48.174;9.782;2023-07-13T12:48:48;6.53;;;1.60;;
21657;SDS011;10990;48.174;9.782;2023-07-13T12:51:16;3.58;;;1.48;;
21657;SDS011;10990;48.174;9.782;2023-07-13T12:53:47;4.50;;;1.75;;
21657;SDS011;10990;48.174;9.782;2023-07-13T12:56:19;4.15;;;1.92;;
21657;SDS011;10990;48.174;9.782;2023-07-13T12:58:49;4.25;;;1.50;;
21657;SDS011;10990;48.174;9.782;2023-07-13T13:01:20;2.78;;;1.50;;
21657;SDS011;10990;48.174;9.782;2023-07-13T13:03:49;4.85;;;1.40;;
21657;SDS011;10990;48.174;9.782;2023-07-13T13:06:22;5.60;;;1.60;;
21657;SDS011;10990;48.174;9.782;2023-07-13T13:08:51;2.95;;;1.70;;
21657;SDS011;10990;48.174;9.782;2023-07-13T13:11:21;3.60;;;1.60;;
21657;SDS011;10990;48.174;9.782;2023-07-13T13:13:49;2.60;;;1.60;;
21657;SDS011;10990;48.174;9.782;2023-07-13T13:16:18;5.45;;;1.80;;
21657;SDS011;10990;48.174;9.782;2023-07-13T13:18:48;3.05;;;1.60;;
21657;SDS011;10990;48.174;9.782;2023-07-13T13:21:16;3.65;;;1.70;;
21657;SDS011;10990;48.174;9.782;2023-07-13T13:23:43;1.85;;;1.50;;
21657;SDS011;10990;48.174;9.782;2023-07-13T13:26:11;3.88;;;1.60;;
21657;SDS011;10990;48.174;9.782;2023-07-13T13:28:41;3.58;;;1.60;;
21657;SDS011;10990;48.174;9.782;2023-07-13T13:31:09;5.20;;;1.60;;
21657;SDS011;10990;48.174;9.782;2023-07-13T13:33:37;4.88;;;1.63;;
21657;SDS011;10990;48.174;9.782;2023-07-13T13:36:10;3.85;;;1.52;;
21657;SDS011;10990;48.174;9.782;2023-07-13T13:38:40;9.70;;;1.77;;
21657;SDS011;10990;48.174;9.782;2023-07-13T13:41:08;2.65;;;1.50;;
21657;SDS011;10990;48.174;9.782;2023-07-13T13:43:36;1.95;;;1.48;;
21657;SDS011;10990;48.174;9.782;2023-07-13T13:46:05;2.40;;;1.60;;
21657;SDS011;10990;48.174;9.782;2023-07-13T13:48:40;2.22;;;1.50;;
21657;SDS011;10990;48.174;9.782;2023-07-13T13:51:11;4.45;;;1.50;;
21657;SDS011;10990;48.174;9.782;2023-07-13T13:53:41;2.15;;;1.70;;
21657;SDS011;10990;48.174;9.782;2023-07-13T13:56:08;4.22;;;1.70;;
21657;SDS011;10990;48.174;9.782;2023-07-13T13:58:35;3.20;;;1.60;;
21657;SDS011;10990;48.174;9.782;2023-07-13T14:01:03;3.10;;;1.90;;
21657;SDS011;10990;48.174;9.782;2023-07-13T14:03:33;2.47;;;1.77;;
21657;SDS011;10990;48.174;9.782;2023-07-13T14:06:00;3.63;;;1.73;;
21657;SDS011;10990;48.174;9.782;2023-07-13T14:08:27;3.63;;;1.50;;
21657;SDS011;10990;48.174;9.782;2023-07-13T14:10:54;5.68;;;1.70;;
21657;SDS011;10990;48.174;9.782;2023-07-13T14:13:24;4.57;;;1.60;;
21657;SDS011;10990;48.174;9.782;2023-07-13T14:15:54;2.75;;;1.70;;
21657;SDS011;10990;48.174;9.782;2023-07-13T14:18:22;2.97;;;1.65;;
21657;SDS011;10990;48.174;9.782;2023-07-13T14:20:49;4.15;;;1.60;;
21657;SDS011;10990;48.174;9.782;2023-07-13T14:23:17;2.65;;;1.50;;
21657;SDS011;10990;48.174;9.782;2023-07-13T14:25:44;3.25;;;1.70;;
21657;SDS011;10990;48.174;9.782;2023-07-13T14:28:17;3.65;;;1.50;;
21657;SDS011;10990;48.174;9.782;2023-07-13T14:30:46;2.17;;;1.45;;
21657;SDS011;10990;48.174;9.782;2023-07-13T14:33:13;2.17;;;1.40;;
21657;SDS011;10990;48.174;9.782;2023-07-13T14:35:41;1.80;;;1.58;;
21657;SDS011;10990;48.174;9.782;2023-07-13T14:38:08;1.98;;;1.42;;
21657;SDS011;10990;48.174;9.782;2023-07-13T14:40:38;3.80;;;1.60;;
21657;SDS011;10990;48.174;9.782;2023-07-13T14:43:08;2.85;;;1.50;;
21657;SDS011;10990;48.174;9.782;2023-07-13T14:45:37;3.00;;;1.40;;
21657;SDS011;10990;48.174;9.782;2023-07-13T14:48:10;2.00;;;1.50;;
21657;SDS011;10990;48.174;9.782;2023-07-13T14:50:45;3.03;;;1.50;;
21657;SDS011;10990;48.174;9.782;2023-07-13T14:53:12;2.47;;;1.63;;
21657;SDS011;10990;48.174;9.782;2023-07-13T14:55:39;3.95;;;1.70;;
21657;SDS011;10990;48.174;9.782;2023-07-13T14:58:07;2.10;;;1.45;;
21657;SDS011;10990;48.174;9.782;2023-07-13T15:00:35;2.28;;;1.40;;
21657;SDS011;10990;48.174;9.782;2023-07-13T15:03:02;3.13;;;1.60;;
21657;SDS011;10990;48.174;9.782;2023-07-13T15:05:31;2.35;;;1.50;;